Terminal Aerodrome Forecast
Issued by NWS Detroit/Pontiac, MI

Home | Current Version | Previous Version | Text Only | Print | Product List | Glossary On
Versions: 1 2 3 4 5 6 7 8 9 10 11 12 13 14 15 16 17 18 19 20 21 22 23 24 25 26 27 28 29
000
FTUS43 KDTX 301720
TAFDTW
TAF
KDTW 301720Z 3018/0124 22005KT P6SM SCT025 OVC035
      TEMPO 3020/3023 TSRA OVC022CB
     FM010300 27004KT P6SM BKN025
     FM010500 29006KT 5SM BR OVC007
     FM011500 30005KT P6SM BKN015
     FM012100 27005KT P6SM BKN030=

USA.gov is the U.S. government's official web portal to all federal, state and local government web resources and services.